createdAt,value
2022-11-30T00:00:29.163Z,98857.31
2022-11-30T00:05:51.309Z,98853.81
2022-11-30T00:11:17.699Z,98848.34
2022-11-30T00:16:39.480Z,98845.94
2022-11-30T00:22:01.233Z,98863.56
2022-11-30T00:27:22.927Z,98845.22
2022-11-30T00:32:44.626Z,98851.22
2022-11-30T00:38:06.324Z,98845.84
2022-11-30T00:43:38.791Z,98847.78
2022-11-30T00:49:00.503Z,98849.47
2022-11-30T00:54:22.240Z,98854.25
2022-11-30T00:59:43.902Z,98850.75
2022-11-30T01:05:06.100Z,98846.06
2022-11-30T01:10:27.887Z,98858.06
2022-11-30T01:15:49.723Z,98853.69
2022-11-30T01:21:13.718Z,98858.41
2022-11-30T01:26:35.778Z,98865.47
2022-11-30T01:31:57.488Z,98862.84
2022-11-30T01:37:19.246Z,98863.06
2022-11-30T01:42:45.885Z,98876.94
2022-11-30T01:48:08.872Z,98872.44
2022-11-30T01:53:30.689Z,98872.41
2022-11-30T01:58:52.910Z,98863.75
2022-11-30T02:04:20.787Z,98873.22
2022-11-30T02:09:44.218Z,98872.44
2022-11-30T02:15:11.921Z,98872.72
2022-11-30T02:20:59.238Z,98870.22
2022-11-30T02:26:51.562Z,98884.91
2022-11-30T02:32:16.299Z,98872.56
2022-11-30T02:37:39.337Z,98869.19
2022-11-30T02:43:04.668Z,98882.38
2022-11-30T02:48:52.559Z,98876.84
2022-11-30T02:54:14.362Z,98873.91
2022-11-30T02:59:36.207Z,98879.41
2022-11-30T03:04:57.898Z,98882.13
2022-11-30T03:10:19.660Z,98875.97
2022-11-30T03:15:41.419Z,98880.19
2022-11-30T03:21:08.178Z,98877.72
2022-11-30T03:26:29.953Z,98888.97
2022-11-30T03:31:51.641Z,98898.72
2022-11-30T03:37:13.421Z,98895.94
2022-11-30T03:42:35.279Z,98890.97
2022-11-30T03:47:56.940Z,98893.38
2022-11-30T03:53:23.575Z,98898.81
2022-11-30T03:58:45.332Z,98898.72
2022-11-30T04:04:07.568Z,98901.31
2022-11-30T04:09:29.249Z,98894.56
2022-11-30T04:14:50.935Z,98888.59
2022-11-30T04:20:12.803Z,98897.19
2022-11-30T04:25:34.485Z,98891.94
2022-11-30T04:30:56.328Z,98897.78
2022-11-30T04:36:19.711Z,98904.00
2022-11-30T04:41:41.392Z,98903.16
2022-11-30T04:47:03.125Z,98902.38
2022-11-30T04:52:24.873Z,98903.81
2022-11-30T04:57:47.103Z,98898.75
2022-11-30T05:03:08.817Z,98897.00
2022-11-30T05:08:30.903Z,98901.31
2022-11-30T05:13:52.582Z,98910.00
2022-11-30T05:19:14.781Z,98906.56
2022-11-30T05:24:36.492Z,98906.59
2022-11-30T05:29:58.862Z,98913.53
2022-11-30T05:35:20.561Z,98916.13
2022-11-30T05:40:42.247Z,98922.81
2022-11-30T05:46:05.991Z,98917.44
2022-11-30T05:51:27.691Z,98918.59
2022-11-30T05:56:54.492Z,98921.25
2022-11-30T06:02:16.930Z,98923.03
2022-11-30T06:07:38.684Z,98920.44
2022-11-30T06:13:06.529Z,98918.72
2022-11-30T06:18:28.481Z,98923.91
2022-11-30T06:23:50.162Z,98913.75
2022-11-30T06:29:11.884Z,98922.28
2022-11-30T06:34:33.642Z,98914.34
2022-11-30T06:40:06.358Z,98920.63
2022-11-30T06:45:28.567Z,98913.56
2022-11-30T06:50:50.413Z,98916.22
2022-11-30T06:56:12.490Z,98931.81
2022-11-30T07:01:34.249Z,98930.25
2022-11-30T07:06:56.499Z,98926.50
2022-11-30T07:12:18.289Z,98933.28
2022-11-30T07:17:40.039Z,98939.38
2022-11-30T07:23:22.024Z,98932.50
2022-11-30T07:28:46.597Z,98938.03
2022-11-30T07:34:09.419Z,98945.03
2022-11-30T07:39:31.217Z,98943.09
2022-11-30T07:44:58.352Z,98938.38
2022-11-30T07:50:20.611Z,98938.19
2022-11-30T07:55:43.023Z,98947.72
2022-11-30T08:01:11.245Z,98951.19
2022-11-30T08:06:33.133Z,98954.63
2022-11-30T08:11:54.868Z,98957.13
2022-11-30T08:17:16.639Z,98970.06
2022-11-30T08:22:38.355Z,98965.78
2022-11-30T08:28:00.087Z,98969.22
2022-11-30T08:33:21.814Z,98972.56
2022-11-30T08:38:47.907Z,98972.63
2022-11-30T08:44:09.714Z,98971.66
2022-11-30T08:49:31.409Z,98968.25
2022-11-30T08:54:53.361Z,98972.63
2022-11-30T09:00:16.049Z,98976.84
2022-11-30T09:05:37.777Z,98982.78
2022-11-30T09:10:59.570Z,98982.06
2022-11-30T09:16:21.668Z,98986.38
2022-11-30T09:21:49.794Z,98992.94
2022-11-30T09:27:13.247Z,98998.16
2022-11-30T09:32:34.970Z,98996.16
2022-11-30T09:37:56.671Z,98999.41
2022-11-30T09:44:01.396Z,99000.47
2022-11-30T09:49:26.761Z,99001.38
2022-11-30T09:54:49.057Z,99000.34
2022-11-30T10:00:21.630Z,98994.16
2022-11-30T10:05:56.605Z,98989.94
2022-11-30T10:11:28.213Z,98987.97
2022-11-30T10:17:15.049Z,98984.41
2022-11-30T10:22:52.019Z,98982.13
2022-11-30T10:28:45.637Z,98984.50
2022-11-30T10:34:16.426Z,98989.31
2022-11-30T10:40:00.276Z,98975.56
2022-11-30T10:45:23.808Z,98982.47
2022-11-30T10:50:45.846Z,98984.97
2022-11-30T10:56:11.135Z,98978.34
2022-11-30T11:01:41.599Z,98974.78
2022-11-30T11:07:10.691Z,98974.59
2022-11-30T11:12:32.892Z,98968.13
2022-11-30T11:18:19.754Z,98964.22
2022-11-30T11:23:43.551Z,98972.84
2022-11-30T11:29:05.306Z,98970.91
2022-11-30T11:34:36.329Z,98970.38
2022-11-30T11:40:02.191Z,98973.81
2022-11-30T11:45:27.928Z,98971.75
2022-11-30T11:51:10.368Z,98975.00
2022-11-30T11:56:37.169Z,98964.44
2022-11-30T12:02:05.616Z,98969.63
2022-11-30T12:07:56.204Z,98967.22
2022-11-30T12:13:22.035Z,98963.44
2022-11-30T12:19:02.171Z,98957.56
2022-11-30T12:24:48.806Z,98959.44
2022-11-30T12:30:29.080Z,98962.03
2022-11-30T12:36:12.560Z,98962.97
2022-11-30T12:41:54.675Z,98955.84
2022-11-30T12:47:45.511Z,98954.19
2022-11-30T12:53:19.614Z,98953.59
2022-11-30T12:58:52.509Z,98951.91
2022-11-30T13:04:57.660Z,98949.94
2022-11-30T13:10:30.234Z,98959.38
2022-11-30T13:15:52.649Z,98956.03
2022-11-30T13:21:26.804Z,98954.69
2022-11-30T13:27:18.133Z,98958.19
2022-11-30T13:38:37.036Z,98963.41
2022-11-30T13:43:59.725Z,98969.38
2022-11-30T13:49:23.456Z,98968.00
2022-11-30T13:54:50.800Z,98962.50
2022-11-30T14:00:31.334Z,98956.41
2022-11-30T14:05:55.135Z,98960.78
2022-11-30T14:11:36.836Z,98955.72
2022-11-30T14:16:59.251Z,98956.31
2022-11-30T14:22:21.721Z,98955.53
2022-11-30T14:27:44.423Z,98964.84
2022-11-30T14:33:19.331Z,98960.41
2022-11-30T14:38:42.439Z,98966.00
2022-11-30T14:44:13.105Z,98967.75
2022-11-30T14:49:34.873Z,98972.00
2022-11-30T14:55:20.287Z,98969.72
2022-11-30T15:00:44.979Z,98974.84
2022-11-30T15:06:06.895Z,98961.75
2022-11-30T15:11:29.164Z,98962.59
2022-11-30T15:17:03.692Z,98966.00
2022-11-30T15:22:25.481Z,98967.72
2022-11-30T15:27:47.528Z,98970.41
2022-11-30T15:33:23.267Z,98973.03
2022-11-30T15:38:50.552Z,98977.19
2022-11-30T15:44:37.069Z,98978.97
2022-11-30T15:49:58.764Z,98980.59
2022-11-30T15:55:40.299Z,98990.16
2022-11-30T16:01:11.938Z,98987.00
2022-11-30T16:06:45.079Z,98996.81
2022-11-30T16:12:20.448Z,98997.06
2022-11-30T16:17:42.226Z,99000.47
2022-11-30T16:23:05.976Z,98994.56
2022-11-30T16:28:27.931Z,99006.88
2022-11-30T16:33:49.987Z,99001.22
2022-11-30T16:39:12.740Z,99001.84
2022-11-30T16:44:34.476Z,99007.97
2022-11-30T16:49:56.296Z,99010.81
2022-11-30T16:55:20.792Z,99003.91
2022-11-30T17:00:42.582Z,99006.56
2022-11-30T17:06:13.592Z,99009.16
2022-11-30T17:11:37.531Z,99015.22
2022-11-30T17:17:03.191Z,99012.44
2022-11-30T17:22:25.161Z,99026.13
2022-11-30T17:27:48.521Z,99024.78
2022-11-30T17:33:10.321Z,99034.78
2022-11-30T17:38:32.985Z,99031.34
2022-11-30T17:43:54.760Z,99022.63
2022-11-30T17:49:16.592Z,99036.97
2022-11-30T17:54:38.413Z,99034.97
2022-11-30T18:00:00.168Z,99040.28
2022-11-30T18:05:22.229Z,99038.53
2022-11-30T18:10:46.103Z,99036.47
2022-11-30T18:16:10.636Z,99034.22
2022-11-30T18:21:32.354Z,99042.81
2022-11-30T18:26:54.084Z,99050.50
2022-11-30T18:32:15.785Z,99052.34
2022-11-30T18:37:37.675Z,99062.88
2022-11-30T18:42:59.458Z,99064.81
2022-11-30T18:48:21.138Z,99069.91
2022-11-30T18:53:44.264Z,99068.28
2022-11-30T18:59:13.285Z,99063.31
2022-11-30T19:04:35.028Z,99067.94
2022-11-30T19:09:56.766Z,99067.78
2022-11-30T19:15:18.541Z,99069.88
2022-11-30T19:20:41.002Z,99075.06
2022-11-30T19:26:04.086Z,99075.34
2022-11-30T19:31:26.852Z,99084.63
2022-11-30T19:36:49.137Z,99084.84
2022-11-30T19:42:11.315Z,99089.81
2022-11-30T19:47:33.128Z,99092.22
2022-11-30T19:52:54.983Z,99089.81
2022-11-30T19:58:16.825Z,99088.78
2022-11-30T20:03:38.640Z,99098.28
2022-11-30T20:09:00.454Z,99095.41
2022-11-30T20:14:23.088Z,99093.09
2022-11-30T20:19:44.891Z,99100.72
2022-11-30T20:25:06.857Z,99103.97
2022-11-30T20:30:28.753Z,99115.00
2022-11-30T20:35:50.660Z,99116.19
2022-11-30T20:41:18.460Z,99114.84
2022-11-30T20:46:40.600Z,99116.72
2022-11-30T20:52:02.864Z,99120.03
2022-11-30T20:57:24.692Z,99125.94
2022-11-30T21:02:46.574Z,99125.75
2022-11-30T21:08:08.542Z,99131.91
2022-11-30T21:13:30.561Z,99136.63
2022-11-30T21:18:52.478Z,99136.84
2022-11-30T21:24:14.322Z,99139.06
2022-11-30T21:29:36.237Z,99127.66
2022-11-30T21:34:58.076Z,99125.09
2022-11-30T21:40:19.785Z,99135.19
2022-11-30T21:45:41.504Z,99139.69
2022-11-30T21:51:15.204Z,99138.59
2022-11-30T21:56:38.975Z,99132.09
2022-11-30T22:02:00.851Z,99132.25
2022-11-30T22:07:31.723Z,99139.19
2022-11-30T22:12:53.623Z,99137.56
2022-11-30T22:18:15.490Z,99146.16
2022-11-30T22:23:39.464Z,99149.38
2022-11-30T22:29:06.838Z,99150.13
2022-11-30T22:34:29.208Z,99147.69
2022-11-30T22:39:51.151Z,99144.34
2022-11-30T22:45:12.970Z,99140.75
2022-11-30T22:50:35.087Z,99146.41
2022-11-30T22:56:01.938Z,99136.78
2022-11-30T23:01:26.127Z,99142.03
2022-11-30T23:06:49.408Z,99141.50
2022-11-30T23:12:20.343Z,99140.13
2022-11-30T23:17:51.820Z,99140.44
2022-11-30T23:23:13.545Z,99141.66
2022-11-30T23:28:35.432Z,99141.38
2022-11-30T23:33:57.151Z,99145.28
2022-11-30T23:39:20.009Z,99147.97
2022-11-30T23:44:41.708Z,99130.16
2022-11-30T23:50:05.456Z,99134.88
2022-11-30T23:55:28.383Z,99131.41
